Gladiator — WDC5410 — position and weather

sailwx.info

Track history (hours):
 
Tides and Currents Weather Stations Pressure Air Temp Water Temp Dewpoint Dewpoint Depression Visibility Wind Speed Wind Dir Waves Ship Positions

Gladiator

Owner: Dorland, Graham E, Deer Harbor, WA. More information available from US FCC via Universal Licensing System and Coast Guard Vessel Documentation Center.

Last reported at 2018-Jul-15 19:27 UTC. Time now 2018-Jul-16 04:39 UTC.
Position N 48°36' W 123°30'.

Length 24 m.

Type: Pleasure craft. MMSI: 367040630.

Date/timePositionNaut miles runAvg speedWind from/ knotsBaromVisibWave heightAir tempDewpointWater temp
2018-Jul-15 19:27N 48°36' W 123°30'4 9.0
2018-Jul-15 18:59N 48°39' W 123°33'4 7.6
2018-Jul-15 18:30N 48°43' W 123°33'4 8.3
2018-Jul-15 18:00N 48°47' W 123°33'15 0.7
2018-Jul-14 18:32N 48°59' W 123°47'1 5.3
2018-Jul-14 18:24N 48°59' W 123°46'15 0.7
2018-Jul-13 21:06N 48°47' W 123°33'210.9
2018-Jul-13 20:57N 48°45' W 123°34'510.1
2018-Jul-13 20:28N 48°42' W 123°28'3 7.0
2018-Jul-13 19:59N 48°40' W 123°24'0 0.6
2018-Jul-13 19:29N 48°40' W 123°24'4 8.1
2018-Jul-13 18:57N 48°39' W 123°18'6 3.7
2018-Jul-13 17:16N 48°37' W 123°09'2 5.4
2018-Jul-13 16:58N 48°38' W 123°07'510.1
2018-Jul-13 16:30N 48°36' W 123°00'  
2018-Jul-07 21:56N 48°36' W 122°59'  
Track history (hours):
 
Tides and Currents Weather Stations Pressure Air Temp Water Temp Dewpoint Dewpoint Depression Visibility Wind Speed Wind Dir Waves Ship Positions

Gladiator

Owner: Dorland, Graham E, Deer Harbor, WA. More information available from US FCC via Universal Licensing System and Coast Guard Vessel Documentation Center.

Last reported at 2018-Jul-15 19:27 UTC. Time now 2018-Jul-16 04:39 UTC.
Position N 48°36' W 123°30'.

Length 24 m.

Type: Pleasure craft. MMSI: 367040630.

Date/timePositionNaut miles runAvg speedWind from/ knotsBaromVisibWave heightAir tempDewpointWater temp
2018-Jul-15 19:27N 48°36' W 123°30'4 9.0
2018-Jul-15 18:59N 48°39' W 123°33'4 7.6
2018-Jul-15 18:30N 48°43' W 123°33'4 8.3
2018-Jul-15 18:00N 48°47' W 123°33'15 0.7
2018-Jul-14 18:32N 48°59' W 123°47'1 5.3
2018-Jul-14 18:24N 48°59' W 123°46'15 0.7
2018-Jul-13 21:06N 48°47' W 123°33'210.9
2018-Jul-13 20:57N 48°45' W 123°34'510.1
2018-Jul-13 20:28N 48°42' W 123°28'3 7.0
2018-Jul-13 19:59N 48°40' W 123°24'0 0.6
2018-Jul-13 19:29N 48°40' W 123°24'4 8.1
2018-Jul-13 18:57N 48°39' W 123°18'6 3.7
2018-Jul-13 17:16N 48°37' W 123°09'2 5.4
2018-Jul-13 16:58N 48°38' W 123°07'510.1
2018-Jul-13 16:30N 48°36' W 123°00'  
2018-Jul-07 21:56N 48°36' W 122°59'  

Dump ship's entire track history